createdAt,value
2023-02-11T00:01:22.573Z,98161.93
2023-02-11T00:03:53.083Z,98160.10
2023-02-11T00:06:23.870Z,98155.02
2023-02-11T00:08:54.646Z,98151.83
2023-02-11T00:11:29.996Z,98147.92
2023-02-11T00:14:02.187Z,98148.02
2023-02-11T00:16:33.498Z,98143.06
2023-02-11T00:19:06.297Z,98142.15
2023-02-11T00:21:36.529Z,98143.19
2023-02-11T00:24:07.633Z,98139.12
2023-02-11T00:26:38.488Z,98133.27
2023-02-11T00:29:09.237Z,98131.32
2023-02-11T00:31:39.941Z,98130.67
2023-02-11T00:34:10.585Z,98133.11
2023-02-11T00:36:40.880Z,98128.35
2023-02-11T00:39:11.658Z,98123.79
2023-02-11T00:41:41.969Z,98123.02
2023-02-11T00:44:12.991Z,98115.98
2023-02-11T00:46:43.731Z,98116.72
2023-02-11T00:49:14.381Z,98113.98
2023-02-11T00:51:44.705Z,98114.34
2023-02-11T00:54:14.922Z,98111.90
2023-02-11T00:56:45.274Z,98112.61
2023-02-11T00:59:16.209Z,98110.23
2023-02-11T01:01:46.860Z,98113.28
2023-02-11T01:04:17.296Z,98108.00
2023-02-11T01:06:48.173Z,98108.92
2023-02-11T01:09:19.760Z,98104.91
2023-02-11T01:11:50.034Z,98107.08
2023-02-11T01:14:21.648Z,98106.43
2023-02-11T01:16:51.946Z,98104.84
2023-02-11T01:19:22.334Z,98105.06
2023-02-11T01:21:53.753Z,98104.25
2023-02-11T01:24:24.438Z,98106.09
2023-02-11T01:26:54.772Z,98106.23
2023-02-11T01:29:25.126Z,98110.33
2023-02-11T01:31:55.743Z,98110.20
2023-02-11T01:34:26.066Z,98109.70
2023-02-11T01:36:59.767Z,98111.98
2023-02-11T01:39:33.233Z,98110.38
2023-02-11T01:42:03.705Z,98110.05
2023-02-11T01:44:35.625Z,98107.64
2023-02-11T01:47:07.886Z,98107.00
2023-02-11T01:49:43.466Z,98107.83
2023-02-11T01:52:33.948Z,98105.46
2023-02-11T01:55:24.866Z,98102.92
2023-02-11T01:57:57.863Z,98101.14
2023-02-11T02:00:31.459Z,98101.36
2023-02-11T02:03:06.324Z,98099.58
2023-02-11T02:05:41.167Z,98098.12
2023-02-11T02:08:15.525Z,98097.45
2023-02-11T02:10:48.604Z,98100.89
2023-02-11T02:13:19.137Z,98101.20
2023-02-11T02:15:51.880Z,98101.54
2023-02-11T02:18:34.567Z,98101.36
2023-02-11T02:21:29.412Z,98103.37
2023-02-11T02:24:11.537Z,98103.42
2023-02-11T02:27:04.064Z,98102.09
2023-02-11T02:29:58.286Z,98098.74
2023-02-11T02:32:48.811Z,98097.96
2023-02-11T02:35:29.274Z,98102.96
2023-02-11T02:38:03.859Z,98101.55
2023-02-11T02:40:35.924Z,98100.33
2023-02-11T02:43:06.682Z,98098.67
2023-02-11T02:45:37.072Z,98100.19
2023-02-11T02:48:07.645Z,98096.59
2023-02-11T02:50:39.911Z,98096.35
2023-02-11T02:53:20.994Z,98100.13
2023-02-11T02:56:03.514Z,98095.30
2023-02-11T02:58:51.964Z,98091.87
2023-02-11T03:01:30.630Z,98090.73
2023-02-11T03:04:06.665Z,98086.70
2023-02-11T03:06:47.060Z,98088.88
2023-02-11T03:09:22.159Z,98089.14
2023-02-11T03:11:52.548Z,98088.25
2023-02-11T03:14:24.153Z,98088.89
2023-02-11T03:16:55.559Z,98086.96
2023-02-11T03:19:37.335Z,98086.37
2023-02-11T03:22:11.552Z,98090.02
2023-02-11T03:24:42.722Z,98093.30
2023-02-11T03:27:18.987Z,98092.27
2023-02-11T03:29:54.091Z,98094.44
2023-02-11T03:32:27.845Z,98093.39
2023-02-11T03:35:00.016Z,98088.63
2023-02-11T03:37:33.980Z,98089.61
2023-02-11T03:40:07.640Z,98091.30
2023-02-11T03:42:42.717Z,98090.61
2023-02-11T03:45:17.164Z,98093.75
2023-02-11T03:47:49.646Z,98091.94
2023-02-11T03:50:20.974Z,98092.52
2023-02-11T03:52:52.328Z,98094.04
2023-02-11T03:55:25.653Z,98096.72
2023-02-11T03:57:55.987Z,98097.51
2023-02-11T04:00:32.766Z,98094.96
2023-02-11T04:03:03.624Z,98093.50
2023-02-11T04:05:34.237Z,98091.77
2023-02-11T04:08:04.657Z,98090.81
2023-02-11T04:10:35.069Z,98095.62
2023-02-11T04:13:05.623Z,98094.77
2023-02-11T04:15:36.146Z,98099.05
2023-02-11T04:18:06.727Z,98103.52
2023-02-11T04:20:37.300Z,98099.50
2023-02-11T04:23:07.694Z,98100.92
2023-02-11T04:25:38.684Z,98103.30
2023-02-11T04:28:09.025Z,98102.80
2023-02-11T04:30:39.412Z,98101.77
2023-02-11T04:33:09.987Z,98103.94
2023-02-11T04:35:40.469Z,98110.40
2023-02-11T04:38:11.150Z,98112.56
2023-02-11T04:40:41.746Z,98117.23
2023-02-11T04:43:11.910Z,98119.14
2023-02-11T04:45:42.322Z,98119.22
2023-02-11T04:48:13.354Z,98121.17
2023-02-11T04:50:44.208Z,98126.33
2023-02-11T04:53:19.812Z,98128.54
2023-02-11T04:55:52.302Z,98128.11
2023-02-11T04:58:24.245Z,98128.02
2023-02-11T05:00:55.022Z,98129.91
2023-02-11T05:03:25.973Z,98129.53
2023-02-11T05:05:56.492Z,98128.14
2023-02-11T05:08:26.653Z,98131.76
2023-02-11T05:10:57.449Z,98130.14
2023-02-11T05:13:27.736Z,98128.71
2023-02-11T05:15:58.674Z,98135.31
2023-02-11T05:18:28.865Z,98133.08
2023-02-11T05:20:59.661Z,98134.38
2023-02-11T05:23:36.309Z,98136.38
2023-02-11T05:26:08.055Z,98137.80
2023-02-11T05:28:40.031Z,98136.69
2023-02-11T05:31:11.708Z,98136.84
2023-02-11T05:33:43.400Z,98138.45
2023-02-11T05:36:14.789Z,98141.89
2023-02-11T05:38:45.381Z,98141.83
2023-02-11T05:41:16.253Z,98143.36
2023-02-11T05:43:48.232Z,98147.54
2023-02-11T05:46:18.966Z,98143.83
2023-02-11T05:48:49.399Z,98146.52
2023-02-11T05:51:19.849Z,98147.41
2023-02-11T05:53:50.436Z,98148.07
2023-02-11T05:56:21.832Z,98150.23
2023-02-11T05:58:52.318Z,98151.05
2023-02-11T06:01:24.511Z,98148.72
2023-02-11T06:03:55.544Z,98149.25
2023-02-11T06:06:32.795Z,98150.67
2023-02-11T06:09:06.299Z,98146.65
2023-02-11T06:11:39.430Z,98146.18
2023-02-11T06:14:11.840Z,98142.77
2023-02-11T06:16:46.350Z,98146.87
2023-02-11T06:19:17.633Z,98150.20
2023-02-11T06:21:53.008Z,98152.23
2023-02-11T06:24:54.742Z,98151.09
2023-02-11T06:27:20.644Z,98151.83
2023-02-11T06:29:52.132Z,98155.33
2023-02-11T06:35:18.520Z,98153.16
2023-02-11T06:37:54.052Z,98154.73
2023-02-11T06:40:25.040Z,98153.23
2023-02-11T06:42:56.266Z,98154.39
2023-02-11T06:45:28.547Z,98156.33
2023-02-11T06:47:59.375Z,98156.30
2023-02-11T06:50:33.906Z,98156.21
2023-02-11T06:53:04.872Z,98158.36
2023-02-11T06:55:37.035Z,98155.29
2023-02-11T06:58:11.907Z,98155.10
2023-02-11T07:00:42.786Z,98153.25
2023-02-11T07:03:13.609Z,98150.39
2023-02-11T07:05:45.249Z,98148.51
2023-02-11T07:08:16.483Z,98147.93
2023-02-11T07:10:47.504Z,98151.23
2023-02-11T07:13:19.641Z,98145.81
2023-02-11T07:15:51.808Z,98147.91
2023-02-11T07:18:25.045Z,98147.50
2023-02-11T07:20:55.659Z,98145.01
2023-02-11T07:23:32.222Z,98147.91
2023-02-11T07:26:08.942Z,98145.33
2023-02-11T07:28:40.412Z,98135.00
2023-02-11T07:31:13.364Z,98134.54
2023-02-11T07:33:53.893Z,98132.30
2023-02-11T07:36:26.806Z,98125.98
2023-02-11T07:38:59.889Z,98121.86
2023-02-11T07:41:31.484Z,98116.76
2023-02-11T07:44:05.420Z,98110.91
2023-02-11T07:46:36.129Z,98108.57
2023-02-11T07:49:06.750Z,98107.67
2023-02-11T07:51:39.304Z,98103.71
2023-02-11T07:54:11.593Z,98109.28
2023-02-11T07:56:41.771Z,98101.45
2023-02-11T07:59:13.353Z,98097.19
2023-02-11T08:01:43.861Z,98097.31
2023-02-11T08:04:15.935Z,98096.46
2023-02-11T08:06:46.172Z,98095.52
2023-02-11T08:09:17.874Z,98091.78
2023-02-11T08:11:50.003Z,98089.54
2023-02-11T08:14:21.161Z,98081.60
2023-02-11T08:16:51.929Z,98083.52
2023-02-11T08:19:37.727Z,98075.02
2023-02-11T08:22:33.353Z,98075.69
2023-02-11T08:25:07.556Z,98066.97
2023-02-11T08:27:39.074Z,98061.36
2023-02-11T08:30:11.971Z,98061.05
2023-02-11T08:32:47.699Z,98055.80
2023-02-11T08:35:19.584Z,98052.02
2023-02-11T08:37:50.555Z,98049.06
2023-02-11T08:40:21.669Z,98052.56
2023-02-11T08:42:52.540Z,98044.66
2023-02-11T08:45:25.329Z,98036.54
2023-02-11T08:47:56.190Z,98030.15
2023-02-11T08:50:28.459Z,98024.61
2023-02-11T08:52:58.938Z,98018.66
2023-02-11T08:55:29.203Z,98020.73
2023-02-11T08:57:59.874Z,98012.67
2023-02-11T09:00:31.465Z,98012.46
2023-02-11T09:03:02.573Z,98002.69
2023-02-11T09:05:42.191Z,98001.41
2023-02-11T09:08:16.635Z,97996.31
2023-02-11T09:10:49.424Z,97996.95
2023-02-11T09:13:21.422Z,97997.39
2023-02-11T09:15:52.980Z,97993.88
2023-02-11T09:18:23.560Z,97991.19
2023-02-11T09:20:58.929Z,97990.14
2023-02-11T09:23:29.880Z,97982.70
2023-02-11T09:26:02.507Z,97976.03
2023-02-11T09:28:34.608Z,97979.80
2023-02-11T09:31:08.582Z,97975.92
2023-02-11T09:33:39.361Z,97974.58
2023-02-11T09:36:11.993Z,97972.11
2023-02-11T09:38:48.047Z,97967.29
2023-02-11T09:41:35.793Z,97963.43
2023-02-11T09:44:07.073Z,97964.02
2023-02-11T09:46:45.451Z,97960.00
2023-02-11T09:49:20.818Z,97955.52
2023-02-11T09:52:06.171Z,97955.00
2023-02-11T09:54:44.121Z,97947.52
2023-02-11T09:57:28.245Z,97947.50
2023-02-11T09:59:59.977Z,97948.59
2023-02-11T10:02:44.932Z,97940.97
2023-02-11T10:05:36.060Z,97940.80
2023-02-11T10:08:15.215Z,97938.45
2023-02-11T10:10:53.521Z,97936.85
2023-02-11T10:13:45.385Z,97934.65
2023-02-11T10:16:36.103Z,97930.51
2023-02-11T10:19:28.946Z,97929.39
2023-02-11T10:22:09.655Z,97927.97
2023-02-11T10:24:40.827Z,97924.25
2023-02-11T10:27:17.616Z,97919.37
2023-02-11T10:29:52.606Z,97918.52
2023-02-11T10:32:33.638Z,97914.20
2023-02-11T10:35:11.642Z,97910.98
2023-02-11T10:37:44.546Z,97906.86
2023-02-11T10:40:19.798Z,97906.80
2023-02-11T10:42:55.576Z,97898.46
2023-02-11T10:45:31.437Z,97894.40
2023-02-11T10:48:02.356Z,97893.29
2023-02-11T10:50:34.717Z,97894.70
2023-02-11T10:53:21.194Z,97888.16
2023-02-11T10:55:53.521Z,97885.41
2023-02-11T10:58:29.584Z,97883.33
2023-02-11T11:01:01.097Z,97881.85
2023-02-11T11:03:35.084Z,97884.09
2023-02-11T11:06:07.887Z,97878.09
2023-02-11T11:08:43.929Z,97872.85
2023-02-11T11:11:17.077Z,97873.98
2023-02-11T11:14:03.036Z,97868.08
2023-02-11T11:16:34.222Z,97870.98
2023-02-11T11:19:23.315Z,97866.91
2023-02-11T11:21:56.081Z,97868.21
2023-02-11T11:24:30.150Z,97864.61
2023-02-11T11:27:02.659Z,97866.23
2023-02-11T11:29:35.533Z,97861.80
2023-02-11T11:32:15.847Z,97861.58
2023-02-11T11:34:51.166Z,97860.49
2023-02-11T11:37:25.517Z,97860.91
2023-02-11T11:39:59.695Z,97861.86
2023-02-11T11:42:32.640Z,97862.56
2023-02-11T11:45:06.139Z,97862.89
2023-02-11T11:47:38.846Z,97860.13
2023-02-11T11:50:25.070Z,97853.79
2023-02-11T11:53:00.015Z,97851.09
2023-02-11T11:55:37.247Z,97848.41
2023-02-11T11:58:14.253Z,97844.98
2023-02-11T12:00:44.631Z,97845.36
2023-02-11T12:03:30.260Z,97844.13
2023-02-11T12:06:14.072Z,97842.13
2023-02-11T12:08:53.116Z,97838.52
2023-02-11T12:11:26.699Z,97834.98
2023-02-11T12:14:07.634Z,97834.40
2023-02-11T12:16:48.880Z,97830.29
2023-02-11T12:19:44.229Z,97829.80
2023-02-11T12:22:26.985Z,97829.61
2023-02-11T12:25:17.772Z,97829.20
2023-02-11T12:28:02.729Z,97824.90
2023-02-11T12:30:53.565Z,97824.59
2023-02-11T12:33:36.868Z,97826.20
2023-02-11T12:36:31.743Z,97826.08
2023-02-11T12:39:13.210Z,97825.48
2023-02-11T12:42:11.154Z,97824.59
2023-02-11T12:44:57.378Z,97821.60
2023-02-11T12:47:34.999Z,97821.47
2023-02-11T12:50:19.584Z,97820.89
2023-02-11T12:53:08.550Z,97819.42
2023-02-11T12:55:48.382Z,97817.23
2023-02-11T12:58:29.694Z,97813.52
2023-02-11T13:01:09.696Z,97816.01
2023-02-11T13:03:43.319Z,97820.73
2023-02-11T13:06:18.004Z,97818.02
2023-02-11T13:08:53.309Z,97821.75
2023-02-11T13:11:29.466Z,97815.73
2023-02-11T13:14:03.919Z,97819.61
2023-02-11T13:16:41.689Z,97813.33
2023-02-11T13:19:23.769Z,97812.20
2023-02-11T13:22:08.125Z,97811.25
2023-02-11T13:24:44.879Z,97808.61
2023-02-11T13:27:25.803Z,97811.31
2023-02-11T13:30:22.386Z,97811.44
2023-02-11T13:33:20.695Z,97814.73
2023-02-11T13:36:08.187Z,97814.02
2023-02-11T13:38:40.438Z,97809.46
2023-02-11T13:41:24.603Z,97805.86
2023-02-11T13:44:37.572Z,97807.15
2023-02-11T13:47:33.454Z,97811.63
2023-02-11T13:50:08.093Z,97812.50
2023-02-11T13:52:39.602Z,97813.55
2023-02-11T13:55:22.575Z,97812.86
2023-02-11T13:58:19.485Z,97819.13
2023-02-11T14:00:58.224Z,97819.81
2023-02-11T14:04:00.594Z,97817.58
2023-02-11T14:06:50.598Z,97819.73
2023-02-11T14:09:48.180Z,97816.85
2023-02-11T14:12:36.151Z,97819.21
2023-02-11T14:15:33.220Z,97813.99
2023-02-11T14:18:24.644Z,97816.29
2023-02-11T14:21:09.856Z,97813.79
2023-02-11T14:23:44.030Z,97816.95
2023-02-11T14:26:39.983Z,97818.30
2023-02-11T14:29:19.418Z,97819.77
2023-02-11T14:31:59.200Z,97820.80
2023-02-11T14:34:41.390Z,97818.47
2023-02-11T14:37:29.160Z,97817.57
2023-02-11T14:40:08.929Z,97820.97
2023-02-11T14:42:44.244Z,97819.27
2023-02-11T14:45:21.064Z,97818.44
2023-02-11T14:47:56.131Z,97823.89
2023-02-11T14:50:34.324Z,97827.95
2023-02-11T14:53:08.138Z,97830.79
2023-02-11T14:55:40.854Z,97833.17
2023-02-11T14:58:16.951Z,97834.87
2023-02-11T15:01:06.171Z,97834.08
2023-02-11T15:03:39.392Z,97836.27
2023-02-11T15:06:20.735Z,97835.38
2023-02-11T15:08:55.383Z,97834.55
2023-02-11T15:11:28.337Z,97834.56
2023-02-11T15:14:10.153Z,97836.42
2023-02-11T15:16:48.933Z,97836.46
2023-02-11T15:19:34.194Z,97843.39
2023-02-11T15:22:10.538Z,97841.70
2023-02-11T15:24:42.655Z,97843.92
2023-02-11T15:27:18.714Z,97845.96
2023-02-11T15:29:50.822Z,97849.17
2023-02-11T15:32:25.481Z,97849.30
2023-02-11T15:34:58.394Z,97849.87
2023-02-11T15:37:30.049Z,97853.91
2023-02-11T15:40:11.458Z,97850.05
2023-02-11T15:42:52.426Z,97844.64
2023-02-11T15:45:29.276Z,97843.33
2023-02-11T15:48:09.782Z,97845.14
2023-02-11T15:50:58.382Z,97847.71
2023-02-11T15:53:32.609Z,97845.55
2023-02-11T15:56:10.378Z,97841.86
2023-02-11T15:58:45.360Z,97839.56
2023-02-11T16:01:37.091Z,97839.06
2023-02-11T16:04:13.961Z,97842.03
2023-02-11T16:06:47.713Z,97840.78
2023-02-11T16:09:33.827Z,97839.66
2023-02-11T16:12:26.259Z,97843.57
2023-02-11T16:15:05.055Z,97848.02
2023-02-11T16:17:36.434Z,97852.09
2023-02-11T16:20:22.015Z,97848.48
2023-02-11T16:22:54.534Z,97848.30
2023-02-11T16:25:36.291Z,97845.79
2023-02-11T16:28:16.899Z,97845.30
2023-02-11T16:30:56.524Z,97846.27
2023-02-11T16:33:28.721Z,97845.80
2023-02-11T16:36:02.546Z,97850.13
2023-02-11T16:38:34.300Z,97848.76
2023-02-11T16:41:08.171Z,97847.33
2023-02-11T16:43:38.748Z,97848.30
2023-02-11T16:46:15.783Z,97845.85
2023-02-11T16:48:46.316Z,97844.70
2023-02-11T16:51:19.274Z,97846.60
2023-02-11T16:53:50.544Z,97847.51
2023-02-11T16:56:22.868Z,97848.40
2023-02-11T16:58:54.759Z,97845.33
2023-02-11T17:01:25.702Z,97845.16
2023-02-11T17:03:58.608Z,97842.21
2023-02-11T17:06:31.150Z,97847.61
2023-02-11T17:09:06.266Z,97851.17
2023-02-11T17:11:37.968Z,97853.50
2023-02-11T17:14:13.829Z,97852.75
2023-02-11T17:16:51.777Z,97852.59
2023-02-11T17:19:26.312Z,97853.85
2023-02-11T17:21:57.981Z,97855.27
2023-02-11T17:24:33.094Z,97851.38
2023-02-11T17:27:04.258Z,97852.02
2023-02-11T17:29:36.040Z,97854.85
2023-02-11T17:32:15.413Z,97852.55
2023-02-11T17:34:46.510Z,97854.26
2023-02-11T17:37:17.668Z,97855.38
2023-02-11T17:39:53.431Z,97854.62
2023-02-11T17:42:35.912Z,97852.11
2023-02-11T17:45:08.541Z,97849.81
2023-02-11T17:47:39.947Z,97847.20
2023-02-11T17:50:13.129Z,97846.75
2023-02-11T17:52:44.766Z,97847.02
2023-02-11T17:55:18.111Z,97842.68
2023-02-11T17:57:52.341Z,97845.36
2023-02-11T18:00:28.682Z,97841.47
2023-02-11T18:03:02.880Z,97839.80
2023-02-11T18:05:43.642Z,97845.97
2023-02-11T18:08:20.609Z,97838.96
2023-02-11T18:10:51.552Z,97838.14
2023-02-11T18:13:33.218Z,97841.98
2023-02-11T18:16:16.315Z,97843.42
2023-02-11T18:18:47.447Z,97842.35
2023-02-11T18:21:34.779Z,97847.64
2023-02-11T18:24:25.910Z,97846.11
2023-02-11T18:27:00.496Z,97846.17
2023-02-11T18:29:32.551Z,97844.75
2023-02-11T18:32:05.664Z,97849.02
2023-02-11T18:34:39.743Z,97846.91
2023-02-11T18:37:14.401Z,97843.97
2023-02-11T18:39:51.509Z,97841.15
2023-02-11T18:42:32.972Z,97842.08
2023-02-11T18:45:11.688Z,97839.04
2023-02-11T18:47:57.648Z,97838.80
2023-02-11T18:50:32.599Z,97838.38
2023-02-11T18:53:07.521Z,97838.54
2023-02-11T18:55:44.042Z,97838.91
2023-02-11T18:58:16.502Z,97839.59
2023-02-11T19:00:57.233Z,97837.34
2023-02-11T19:03:42.284Z,97838.22
2023-02-11T19:06:24.550Z,97838.27
2023-02-11T19:09:09.668Z,97837.54
2023-02-11T19:11:53.890Z,97836.75
2023-02-11T19:14:28.577Z,97837.98
2023-02-11T19:17:05.295Z,97835.97
2023-02-11T19:19:42.393Z,97834.64
2023-02-11T19:22:13.402Z,97834.44
2023-02-11T19:24:52.789Z,97829.65
2023-02-11T19:27:23.240Z,97828.80
2023-02-11T19:29:55.758Z,97828.21
2023-02-11T19:32:32.433Z,97828.61
2023-02-11T19:35:04.571Z,97830.13
2023-02-11T19:37:35.561Z,97829.85
2023-02-11T19:40:09.257Z,97829.35
2023-02-11T19:42:40.100Z,97826.86
2023-02-11T19:45:12.589Z,97826.55
2023-02-11T19:47:46.862Z,97827.29
2023-02-11T19:50:23.134Z,97828.44
2023-02-11T19:52:55.345Z,97821.69
2023-02-11T19:55:35.775Z,97821.15
2023-02-11T19:58:09.326Z,97818.00
2023-02-11T20:00:40.365Z,97815.55
2023-02-11T20:03:17.281Z,97812.39
2023-02-11T20:05:52.531Z,97808.20
2023-02-11T20:08:23.292Z,97811.13
2023-02-11T20:11:10.321Z,97804.94
2023-02-11T20:13:42.005Z,97800.90
2023-02-11T20:16:18.739Z,97803.25
2023-02-11T20:18:54.872Z,97805.20
2023-02-11T20:21:34.375Z,97808.39
2023-02-11T20:24:09.511Z,97811.14
2023-02-11T20:26:42.361Z,97810.06
2023-02-11T20:29:17.219Z,97811.16
2023-02-11T20:31:53.150Z,97809.37
2023-02-11T20:34:25.314Z,97808.98
2023-02-11T20:36:57.227Z,97808.89
2023-02-11T20:39:31.231Z,97808.45
2023-02-11T20:42:03.837Z,97809.27
2023-02-11T20:44:37.067Z,97809.63
2023-02-11T20:47:12.191Z,97810.09
2023-02-11T20:49:47.344Z,97808.19
2023-02-11T20:52:21.627Z,97805.15
2023-02-11T20:54:54.789Z,97802.80
2023-02-11T20:57:25.852Z,97798.31
2023-02-11T20:59:59.425Z,97797.06
2023-02-11T21:02:31.014Z,97795.55
2023-02-11T21:05:05.003Z,97793.36
2023-02-11T21:07:37.575Z,97792.27
2023-02-11T21:10:13.046Z,97789.00
2023-02-11T21:12:49.531Z,97788.28
2023-02-11T21:15:25.132Z,97787.86
2023-02-11T21:17:56.492Z,97782.88
2023-02-11T21:20:31.834Z,97782.35
2023-02-11T21:23:07.398Z,97782.04
2023-02-11T21:25:38.378Z,97778.26
2023-02-11T21:28:11.552Z,97770.30
2023-02-11T21:30:53.357Z,97768.55
2023-02-11T21:33:28.465Z,97765.76
2023-02-11T21:36:01.938Z,97765.49
2023-02-11T21:38:35.976Z,97765.64
2023-02-11T21:41:08.198Z,97765.54
2023-02-11T21:43:42.313Z,97762.17
2023-02-11T21:46:17.132Z,97759.23
2023-02-11T21:48:49.345Z,97755.21
2023-02-11T21:51:22.271Z,97755.55
2023-02-11T21:54:00.919Z,97755.73
2023-02-11T21:56:33.168Z,97752.89
2023-02-11T21:59:03.607Z,97749.88
2023-02-11T22:01:37.521Z,97751.96
2023-02-11T22:04:08.943Z,97753.15
2023-02-11T22:06:43.501Z,97752.80
2023-02-11T22:09:16.915Z,97753.14
2023-02-11T22:11:48.969Z,97750.77
2023-02-11T22:14:31.230Z,97749.70
2023-02-11T22:17:04.852Z,97745.83
2023-02-11T22:19:35.315Z,97747.77
2023-02-11T22:22:08.138Z,97745.07
2023-02-11T22:24:41.416Z,97748.80
2023-02-11T22:27:17.397Z,97752.58
2023-02-11T22:29:49.802Z,97744.91
2023-02-11T22:32:21.248Z,97744.57
2023-02-11T22:34:53.572Z,97741.39
2023-02-11T22:37:25.294Z,97738.13
2023-02-11T22:39:55.578Z,97736.02
2023-02-11T22:42:26.363Z,97735.07
2023-02-11T22:44:56.835Z,97739.30
2023-02-11T22:47:32.940Z,97740.36
2023-02-11T22:50:03.939Z,97738.61
2023-02-11T22:52:36.589Z,97736.66
2023-02-11T22:55:08.075Z,97733.55
2023-02-11T22:57:38.670Z,97730.63
2023-02-11T23:00:11.904Z,97727.15
2023-02-11T23:02:43.661Z,97725.90
2023-02-11T23:05:17.520Z,97722.89
2023-02-11T23:07:47.973Z,97722.33
2023-02-11T23:10:18.655Z,97718.81
2023-02-11T23:12:48.935Z,97723.16
2023-02-11T23:15:22.270Z,97720.34
2023-02-11T23:17:53.722Z,97717.94
2023-02-11T23:20:24.104Z,97714.90
2023-02-11T23:22:54.532Z,97714.42
2023-02-11T23:25:27.522Z,97713.40
2023-02-11T23:27:58.243Z,97710.10
2023-02-11T23:30:28.929Z,97704.55
2023-02-11T23:32:59.393Z,97707.34
2023-02-11T23:35:29.670Z,97705.08
2023-02-11T23:38:00.372Z,97704.04
2023-02-11T23:40:30.636Z,97706.91
2023-02-11T23:43:01.767Z,97701.86
2023-02-11T23:45:36.195Z,97701.36
2023-02-11T23:48:07.157Z,97701.33
2023-02-11T23:50:43.761Z,97698.17
2023-02-11T23:53:14.561Z,97697.48
2023-02-11T23:55:47.183Z,97692.68
2023-02-11T23:58:17.782Z,97690.89
